Time;durP1;ratioP1;P1;durP2;ratioP2;P2;SDS_P1;SDS_P2;PMS_P1;PMS_P2;Temp;Humidity;BMP_temperature;BMP_pressure;BME280_temperature;BME280_humidity;BME280_pressure;Samples;Min_cycle;Max_cycle;Signal;HPM_P1;HPM_P2
2023/01/27 00:00:15;;;;;;;16.40;8.77;;;-1.00;99.90;;;;;;6215302;23;20417;-77
2023/01/27 00:02:43;;;;;;;27.07;12.10;;;-1.30;99.90;;;;;;6213611;23;20421;-76
2023/01/27 00:05:11;;;;;;;25.17;9.67;;;-1.40;99.90;;;;;;6210793;23;20411;-75
2023/01/27 00:07:38;;;;;;;26.83;10.83;;;-1.30;99.90;;;;;;6210903;23;20411;-75
2023/01/27 00:10:06;;;;;;;17.20;9.10;;;-1.10;99.90;;;;;;6211056;23;20415;-74
2023/01/27 00:15:19;;;;;;;27.00;10.73;;;-1.00;99.90;;;;;;6212123;23;20873;-75
2023/01/27 00:17:46;;;;;;;20.83;11.23;;;-1.00;99.90;;;;;;6212376;23;20446;-75
2023/01/27 00:24:34;;;;;;;16.00;8.90;;;-0.90;99.90;;;;;;6213412;23;20415;-75
2023/01/27 00:25:49;;;;;;;21.07;9.83;;;-1.30;99.90;;;;;;6214629;23;20397;-75
2023/01/27 00:28:21;;;;;;;25.13;11.00;;;-1.30;99.90;;;;;;6214753;23;20407;-76
2023/01/27 00:30:50;;;;;;;29.20;11.77;;;-1.40;99.90;;;;;;6213243;23;20718;-75
2023/01/27 00:33:25;;;;;;;30.70;10.70;;;-1.40;99.90;;;;;;6211295;23;20413;-75
2023/01/27 00:35:58;;;;;;;23.07;10.27;;;-1.50;99.90;;;;;;6210796;23;20438;-75
2023/01/27 00:38:25;;;;;;;21.63;9.33;;;-1.40;99.90;;;;;;6210579;23;20977;-74
2023/01/27 00:43:32;;;;;;;20.80;10.80;;;-1.50;99.90;;;;;;6209333;23;20726;-74
2023/01/27 00:46:01;;;;;;;26.10;10.57;;;-1.40;99.90;;;;;;6210117;23;20430;-74
2023/01/27 00:48:28;;;;;;;25.37;11.50;;;-1.40;99.90;;;;;;6210062;23;20452;-75
2023/01/27 00:50:55;;;;;;;25.10;10.10;;;-1.50;99.90;;;;;;6209662;23;20420;-75
2023/01/27 00:53:21;;;;;;;22.10;10.80;;;-1.40;99.90;;;;;;6209920;23;20399;-75
2023/01/27 00:55:48;;;;;;;21.80;10.43;;;-1.40;99.90;;;;;;6210123;23;20448;-75
2023/01/27 00:58:15;;;;;;;17.87;9.00;;;-1.40;99.90;;;;;;6210248;23;20414;-74
2023/01/27 01:00:42;;;;;;;22.77;10.30;;;-1.40;99.90;;;;;;6209707;23;20433;-75
2023/01/27 01:03:10;;;;;;;24.67;10.23;;;-1.40;99.90;;;;;;6210101;23;20407;-75
2023/01/27 01:05:37;;;;;;;19.70;9.27;;;-1.40;99.90;;;;;;6209629;23;20421;-75
2023/01/27 01:08:04;;;;;;;17.73;7.80;;;-1.30;99.90;;;;;;6210110;23;20415;-76
2023/01/27 01:10:30;;;;;;;17.23;7.80;;;-1.20;99.90;;;;;;6209929;23;20391;-75
2023/01/27 01:12:57;;;;;;;14.27;5.00;;;-1.10;99.90;;;;;;6209938;23;20418;-75
2023/01/27 01:15:24;;;;;;;11.70;5.80;;;-1.00;99.90;;;;;;6209796;23;20424;-76
2023/01/27 01:17:51;;;;;;;16.80;7.53;;;-0.90;99.90;;;;;;6209345;23;20445;-76
2023/01/27 01:20:19;;;;;;;14.40;6.80;;;-0.90;99.90;;;;;;6209566;23;20419;-74
2023/01/27 01:22:46;;;;;;;12.93;7.43;;;-0.80;99.90;;;;;;6209370;23;20398;-74
2023/01/27 01:25:12;;;;;;;17.53;6.93;;;-0.80;99.90;;;;;;6209315;23;20497;-74
2023/01/27 01:27:39;;;;;;;14.40;6.60;;;-0.80;99.90;;;;;;6209764;23;20406;-74
2023/01/27 01:30:08;;;;;;;11.07;6.53;;;-0.80;99.90;;;;;;6209245;23;20427;-74
2023/01/27 01:32:35;;;;;;;11.23;7.10;;;-0.80;99.90;;;;;;6209506;23;20469;-74
2023/01/27 01:35:01;;;;;;;15.67;6.20;;;-0.80;99.90;;;;;;6209160;23;20417;-74
2023/01/27 01:37:29;;;;;;;14.50;7.30;;;-0.90;99.90;;;;;;6208998;23;20446;-74
2023/01/27 01:39:56;;;;;;;15.50;6.83;;;-0.80;99.90;;;;;;6209476;23;20411;-76
2023/01/27 01:42:23;;;;;;;14.17;7.30;;;-0.90;99.90;;;;;;6209610;23;20428;-75
2023/01/27 01:45:12;;;;;;;20.27;8.50;;;-1.10;99.90;;;;;;6209484;23;20413;-75
2023/01/27 01:47:39;;;;;;;12.43;7.40;;;-0.90;99.90;;;;;;6208917;23;20639;-75
2023/01/27 01:50:06;;;;;;;17.10;8.20;;;-0.80;99.90;;;;;;6209071;23;20934;-74
2023/01/27 01:52:34;;;;;;;11.90;7.27;;;-0.80;99.90;;;;;;6209651;23;20474;-75
2023/01/27 01:55:01;;;;;;;6.83;5.13;;;-0.70;99.90;;;;;;6209515;23;20810;-75
2023/01/27 01:57:36;;;;;;;8.10;5.37;;;-0.70;99.90;;;;;;6209307;23;20452;-74
2023/01/27 02:00:06;;;;;;;14.83;6.27;;;-0.70;99.90;;;;;;6210294;23;20902;-75
2023/01/27 02:02:34;;;;;;;12.27;5.30;;;-0.70;99.90;;;;;;6210847;23;20819;-75
2023/01/27 02:05:03;;;;;;;14.10;5.80;;;-0.70;99.90;;;;;;6209506;23;20406;-75
2023/01/27 02:07:38;;;;;;;10.30;5.67;;;-0.80;99.90;;;;;;6209435;23;20407;-74
2023/01/27 02:10:06;;;;;;;13.13;5.70;;;-0.80;99.90;;;;;;6209769;23;20408;-75
2023/01/27 02:12:32;;;;;;;9.07;5.97;;;-0.90;99.90;;;;;;6209271;23;20873;-74
2023/01/27 02:14:59;;;;;;;12.90;5.47;;;-0.80;99.90;;;;;;6209516;23;20409;-75
2023/01/27 02:17:26;;;;;;;7.30;4.40;;;-0.80;99.90;;;;;;6208472;23;21047;-74
2023/01/27 02:20:01;;;;;;;8.93;4.57;;;-0.90;99.90;;;;;;6209137;23;20400;-75
2023/01/27 02:22:52;;;;;;;7.07;4.23;;;-1.00;99.90;;;;;;6208988;23;20395;-76
2023/01/27 02:25:26;;;;;;;8.63;4.77;;;-0.90;99.90;;;;;;6208672;23;20719;-74
2023/01/27 02:27:54;;;;;;;8.53;4.10;;;-1.00;99.90;;;;;;6208942;23;20393;-75
2023/01/27 02:30:22;;;;;;;10.23;4.90;;;-1.00;99.90;;;;;;6209249;23;20743;-74
2023/01/27 02:32:48;;;;;;;9.13;5.00;;;-1.00;99.90;;;;;;6209094;23;20784;-74
2023/01/27 02:35:21;;;;;;;10.37;5.97;;;-1.00;99.90;;;;;;6209469;23;20414;-74
2023/01/27 02:37:50;;;;;;;9.57;5.37;;;-1.10;99.90;;;;;;6209208;23;20958;-75
2023/01/27 02:40:18;;;;;;;8.57;6.00;;;-1.00;99.90;;;;;;6208870;23;20791;-76
2023/01/27 02:42:45;;;;;;;15.97;6.90;;;-1.00;99.90;;;;;;6209417;23;20421;-75
2023/01/27 02:45:13;;;;;;;11.70;6.20;;;-1.00;99.90;;;;;;6209360;23;20416;-75
2023/01/27 02:47:40;;;;;;;7.33;5.17;;;-1.00;99.90;;;;;;6208926;23;20406;-75
2023/01/27 02:50:08;;;;;;;9.60;5.70;;;-1.00;99.90;;;;;;6209316;23;20410;-75
2023/01/27 02:52:34;;;;;;;14.40;7.17;;;-1.00;99.90;;;;;;6208872;23;20440;-75
2023/01/27 02:55:01;;;;;;;9.53;5.87;;;-1.00;99.90;;;;;;6209505;23;20414;-75
2023/01/27 02:57:28;;;;;;;10.53;5.83;;;-1.20;99.90;;;;;;6209099;23;20460;-75
2023/01/27 02:59:55;;;;;;;13.00;6.23;;;-1.10;99.90;;;;;;6211023;23;20406;-76
2023/01/27 03:02:29;;;;;;;18.10;7.07;;;-1.10;99.90;;;;;;6210842;23;20496;-75
2023/01/27 03:04:56;;;;;;;13.40;6.13;;;-1.10;99.90;;;;;;6210729;23;20390;-74
2023/01/27 03:07:23;;;;;;;13.87;7.30;;;-1.10;99.90;;;;;;6210579;23;20933;-75
2023/01/27 03:09:49;;;;;;;12.67;6.00;;;-1.20;99.90;;;;;;6211205;23;20417;-75
2023/01/27 03:12:23;;;;;;;10.80;6.30;;;-1.20;99.90;;;;;;6210945;23;20400;-74
2023/01/27 03:20:23;;;;;;;17.40;7.10;;;-1.10;99.90;;;;;;6210537;23;20871;-75
2023/01/27 03:22:50;;;;;;;8.73;5.87;;;-1.10;99.90;;;;;;6211013;23;20410;-74
2023/01/27 03:25:17;;;;;;;11.80;7.70;;;-1.10;99.90;;;;;;6211088;23;20421;-74
2023/01/27 03:27:44;;;;;;;15.13;6.10;;;-1.10;99.90;;;;;;6210382;23;20411;-75
2023/01/27 03:30:11;;;;;;;12.60;6.13;;;-1.10;99.90;;;;;;6210424;23;20450;-75
2023/01/27 03:32:45;;;;;;;11.33;6.63;;;-1.10;99.90;;;;;;6210375;23;20390;-75
2023/01/27 03:35:13;;;;;;;14.93;6.43;;;-1.10;99.90;;;;;;6210202;23;20411;-75
2023/01/27 03:48:39;;;;;;;9.73;5.93;;;-1.10;99.90;;;;;;6210173;23;20910;-75
2023/01/27 03:51:08;;;;;;;11.70;5.50;;;-1.00;99.90;;;;;;6210527;23;20649;-75
2023/01/27 03:53:35;;;;;;;11.13;6.83;;;-1.00;99.90;;;;;;6210643;23;20401;-75
2023/01/27 03:56:02;;;;;;;13.33;6.70;;;-1.20;99.90;;;;;;6210746;23;20406;-77
2023/01/27 03:58:30;;;;;;;17.77;7.20;;;-1.20;99.90;;;;;;6210555;23;20537;-74
2023/01/27 04:00:59;;;;;;;12.23;6.37;;;-1.20;99.90;;;;;;6209642;23;20755;-75
2023/01/27 04:09:00;;;;;;;9.70;5.60;;;-1.10;99.90;;;;;;6210194;23;20382;-77
2023/01/27 04:14:12;;;;;;;13.23;6.77;;;-1.10;99.90;;;;;;6210199;23;20434;-75
2023/01/27 04:16:39;;;;;;;10.37;7.27;;;-1.10;99.90;;;;;;6209376;23;20464;-74
2023/01/27 04:19:08;;;;;;;13.27;6.50;;;-1.00;99.90;;;;;;6210474;23;20415;-74
2023/01/27 04:21:36;;;;;;;13.93;6.93;;;-0.90;99.90;;;;;;6210460;23;20410;-74
2023/01/27 04:24:07;;;;;;;14.90;6.97;;;-1.00;99.90;;;;;;6210833;23;20407;-75
2023/01/27 04:26:34;;;;;;;15.00;7.13;;;-1.00;99.90;;;;;;6210532;23;20406;-74
2023/01/27 04:29:02;;;;;;;12.47;6.30;;;-1.00;99.90;;;;;;6210412;23;20417;-76
2023/01/27 04:31:29;;;;;;;14.73;7.83;;;-1.00;99.90;;;;;;6209877;23;20506;-75
2023/01/27 04:33:56;;;;;;;10.80;6.30;;;-1.00;99.90;;;;;;6209468;23;20395;-75
2023/01/27 04:36:23;;;;;;;9.97;5.63;;;-1.00;99.90;;;;;;6210202;23;20414;-74
2023/01/27 04:38:51;;;;;;;15.43;6.13;;;-1.00;99.90;;;;;;6209919;23;20883;-74
2023/01/27 04:41:18;;;;;;;10.73;6.03;;;-1.10;99.90;;;;;;6210507;23;20413;-74
2023/01/27 04:43:44;;;;;;;7.97;4.53;;;-1.10;99.90;;;;;;6210091;23;20424;-75
2023/01/27 04:46:11;;;;;;;8.83;4.77;;;-1.10;99.90;;;;;;6210272;23;20413;-75
2023/01/27 04:48:38;;;;;;;8.00;5.33;;;-1.20;99.90;;;;;;6209042;23;20441;-74
2023/01/27 04:51:05;;;;;;;13.07;6.13;;;-1.10;99.90;;;;;;6210462;23;20406;-75
2023/01/27 04:53:32;;;;;;;13.63;6.73;;;-1.20;99.90;;;;;;6210342;23;20415;-76
2023/01/27 04:56:06;;;;;;;10.10;6.37;;;-1.20;99.90;;;;;;6210195;23;20434;-75
2023/01/27 04:58:33;;;;;;;10.73;6.40;;;-1.20;99.90;;;;;;6209947;23;20459;-74
2023/01/27 05:01:00;;;;;;;11.03;6.23;;;-1.20;99.90;;;;;;6209763;23;20888;-75
2023/01/27 05:03:27;;;;;;;12.03;6.20;;;-1.20;99.90;;;;;;6210160;23;20481;-77
2023/01/27 05:05:54;;;;;;;13.77;5.80;;;-1.10;99.90;;;;;;6209832;23;20410;-75
2023/01/27 05:08:20;;;;;;;12.17;5.50;;;-1.20;99.90;;;;;;6210391;23;20407;-76
2023/01/27 05:10:47;;;;;;;14.87;8.83;;;-1.10;99.90;;;;;;6210615;23;20410;-74
2023/01/27 05:13:15;;;;;;;15.20;7.60;;;-1.20;99.90;;;;;;6210289;23;20500;-74
2023/01/27 05:15:42;;;;;;;18.93;8.07;;;-1.20;99.90;;;;;;6210537;23;20412;-76
2023/01/27 05:18:09;;;;;;;13.17;7.63;;;-1.20;99.90;;;;;;6209698;23;20809;-78
2023/01/27 05:20:36;;;;;;;13.60;7.93;;;-1.20;99.90;;;;;;6225471;23;20416;-87
2023/01/27 05:25:44;;;;;;;14.53;6.93;;;-1.10;99.90;;;;;;6203613;23;20405;-73
2023/01/27 05:28:10;;;;;;;13.60;8.07;;;-1.10;99.90;;;;;;6218126;23;20425;-83
2023/01/27 05:30:39;;;;;;;13.07;6.90;;;-1.10;99.90;;;;;;6237209;22;20431;-88
2023/01/27 05:33:07;;;;;;;13.13;7.03;;;-1.10;99.90;;;;;;6227400;23;20441;-80
2023/01/27 05:38:13;;;;;;;12.57;7.33;;;-1.00;99.90;;;;;;6228691;22;20425;-90
2023/01/27 05:40:40;;;;;;;19.57;7.37;;;-0.80;99.90;;;;;;6266713;22;20453;-83
2023/01/27 06:06:28;;;;;;;15.83;8.00;;;-1.10;99.90;;;;;;6238366;22;20946;-85
2023/01/27 06:08:55;;;;;;;15.47;8.57;;;-0.80;99.90;;;;;;6247916;22;20461;-89
2023/01/27 06:11:23;;;;;;;15.17;8.27;;;-1.10;99.90;;;;;;6241027;22;20756;-68
2023/01/27 06:13:51;;;;;;;26.53;12.63;;;-1.10;99.90;;;;;;6258267;22;20453;-89
2023/01/27 06:18:53;;;;;;;16.17;8.20;;;-0.80;99.90;;;;;;6253060;22;20790;-87
2023/01/27 06:31:43;;;;;;;17.20;8.50;;;-1.00;99.90;;;;;;6264537;22;20444;-90
2023/01/27 06:34:10;;;;;;;21.03;9.30;;;-1.00;99.90;;;;;;6259980;23;20529;-86
2023/01/27 06:36:37;;;;;;;22.27;9.90;;;-0.80;99.90;;;;;;6257472;22;20471;-89
2023/01/27 06:39:04;;;;;;;26.13;9.13;;;-1.10;99.90;;;;;;6260047;23;20532;-89
2023/01/27 06:44:06;;;;;;;14.87;8.50;;;-0.90;99.90;;;;;;6244337;22;20459;-90
2023/01/27 06:54:20;;;;;;;17.07;7.63;;;-0.90;99.90;;;;;;6236396;22;20476;-83
2023/01/27 07:14:56;;;;;;;16.27;7.60;;;-0.90;99.90;;;;;;6234818;22;20451;-85
2023/01/27 07:17:23;;;;;;;14.60;7.70;;;-0.90;99.90;;;;;;6246118;23;20449;-87
2023/01/27 07:19:50;;;;;;;13.53;7.17;;;-0.90;99.90;;;;;;6248320;23;20402;-85
2023/01/27 07:22:16;;;;;;;14.57;8.10;;;-0.90;99.90;;;;;;6247937;23;20445;-83
2023/01/27 07:24:43;;;;;;;17.73;9.30;;;-0.80;99.90;;;;;;6248399;23;20820;-86
2023/01/27 07:27:10;;;;;;;18.90;9.00;;;-0.80;99.90;;;;;;6250546;23;20413;-87
2023/01/27 07:29:37;;;;;;;19.60;8.73;;;-0.20;99.90;;;;;;6252994;23;20505;-86
2023/01/27 07:32:05;;;;;;;14.80;8.87;;;0.20;99.90;;;;;;6252586;23;20448;-86
2023/01/27 07:34:32;;;;;;;21.77;8.70;;;-0.20;99.90;;;;;;6256853;23;20414;-84
2023/01/27 07:36:59;;;;;;;19.83;9.40;;;-0.30;99.90;;;;;;6257741;23;20410;-86
2023/01/27 07:39:26;;;;;;;19.83;9.73;;;0.80;99.90;;;;;;6261074;23;20469;-86
2023/01/27 07:41:53;;;;;;;17.70;7.80;;;-0.60;99.90;;;;;;6262904;23;20410;-89
2023/01/27 07:44:21;;;;;;;17.50;8.83;;;-0.60;99.90;;;;;;6260708;23;20424;-90
2023/01/27 07:46:47;;;;;;;20.13;11.23;;;-0.60;99.90;;;;;;6261471;23;20416;-87
2023/01/27 07:49:15;;;;;;;19.90;7.90;;;-0.70;99.90;;;;;;6261405;23;20449;-87
2023/01/27 07:51:42;;;;;;;20.90;8.33;;;-0.70;99.90;;;;;;6261699;23;20470;-87
2023/01/27 07:54:09;;;;;;;17.50;7.20;;;-0.50;99.90;;;;;;6262987;23;20452;-92
2023/01/27 07:56:36;;;;;;;18.07;9.40;;;-0.50;99.90;;;;;;6259342;23;20473;-91
2023/01/27 07:59:03;;;;;;;20.07;8.30;;;-0.60;99.90;;;;;;6260148;23;20449;-88
2023/01/27 08:01:30;;;;;;;16.30;7.10;;;-0.60;99.90;;;;;;6258998;23;20401;-90
2023/01/27 08:03:57;;;;;;;13.37;7.73;;;-0.60;99.90;;;;;;6259604;23;20827;-88
2023/01/27 08:06:25;;;;;;;14.77;6.97;;;-0.60;99.90;;;;;;6254216;23;20402;-83
2023/01/27 08:08:52;;;;;;;17.53;7.73;;;-0.70;99.90;;;;;;6244711;23;20798;-82
2023/01/27 08:11:19;;;;;;;11.77;6.50;;;-0.60;99.90;;;;;;6243824;23;20752;-83
2023/01/27 08:13:46;;;;;;;14.30;6.20;;;-0.60;99.90;;;;;;6242142;23;20409;-82
2023/01/27 08:16:14;;;;;;;14.10;8.00;;;-0.60;99.90;;;;;;6241483;23;20425;-88
2023/01/27 08:18:41;;;;;;;18.60;7.23;;;-0.70;99.90;;;;;;6243338;23;20451;-81
2023/01/27 08:21:11;;;;;;;13.33;7.80;;;-0.60;99.90;;;;;;6244513;23;20500;-82
2023/01/27 08:23:39;;;;;;;23.93;8.33;;;-0.60;99.90;;;;;;6256570;23;20410;-94
2023/01/27 08:26:07;;;;;;;17.73;8.47;;;-0.60;99.90;;;;;;6270372;22;20406;-92
2023/01/27 08:28:36;;;;;;;20.33;8.70;;;-0.60;99.90;;;;;;6258844;23;20454;-92
2023/01/27 08:38:51;;;;;;;19.50;9.60;;;-0.60;99.90;;;;;;6237100;22;20469;-91
2023/01/27 09:12:23;;;;;;;20.50;10.10;;;-0.30;99.90;;;;;;6243726;22;20445;-90
2023/01/27 09:14:50;;;;;;;19.33;9.77;;;-0.60;99.90;;;;;;6252585;23;20469;-90
2023/01/27 09:17:18;;;;;;;18.30;8.37;;;-0.50;99.90;;;;;;6249810;23;20402;-91
2023/01/27 09:19:45;;;;;;;22.47;8.50;;;-0.50;99.90;;;;;;6271891;22;20437;-88
2023/01/27 09:48:18;;;;;;;24.60;11.70;;;-0.40;99.90;;;;;;6241287;22;20445;-83
2023/01/27 09:56:01;;;;;;;23.27;9.03;;;-0.30;99.90;;;;;;6230900;22;20416;-87
2023/01/27 10:04:00;;;;;;;15.50;7.43;;;-0.20;99.90;;;;;;6253868;22;20449;-92
2023/01/27 10:12:06;;;;;;;14.70;7.37;;;-0.10;99.90;;;;;;6258582;22;20453;-93
2023/01/27 10:14:46;;;;;;;17.47;7.60;;;-0.50;99.90;;;;;;6256532;23;20385;-93
2023/01/27 10:17:24;;;;;;;16.80;8.10;;;-1.40;99.90;;;;;;6252041;23;20401;-91
2023/01/27 10:20:06;;;;;;;17.80;8.93;;;-0.20;99.90;;;;;;6256367;23;20432;-91
2023/01/27 10:22:42;;;;;;;13.07;7.67;;;-0.70;99.90;;;;;;6249649;23;20480;-92
2023/01/27 10:25:22;;;;;;;18.23;8.60;;;-0.40;99.90;;;;;;6244326;23;20398;-87
2023/01/27 10:27:56;;;;;;;20.03;8.80;;;-0.50;99.90;;;;;;6244742;23;20420;-91
2023/01/27 10:30:29;;;;;;;19.57;9.63;;;-0.40;99.90;;;;;;6243183;23;20405;-90
2023/01/27 10:33:03;;;;;;;16.70;7.93;;;-0.20;99.90;;;;;;6243968;23;20511;-91
2023/01/27 10:35:37;;;;;;;16.33;9.20;;;-0.30;99.90;;;;;;6244724;23;21064;-86
2023/01/27 10:38:10;;;;;;;14.20;7.83;;;-0.30;99.90;;;;;;6244881;23;20516;-91
2023/01/27 10:40:44;;;;;;;18.13;7.83;;;-0.30;99.90;;;;;;6260417;23;20441;-93
2023/01/27 10:43:17;;;;;;;21.73;9.90;;;-0.40;99.90;;;;;;6260781;23;20470;-93
2023/01/27 10:45:53;;;;;;;19.30;8.60;;;-0.30;99.90;;;;;;6262361;23;20437;-93
2023/01/27 10:48:29;;;;;;;20.50;10.03;;;0.00;99.90;;;;;;6266502;23;20417;-92
2023/01/27 10:51:01;;;;;;;14.27;7.93;;;0.80;99.90;;;;;;6262620;23;20425;-92
2023/01/27 10:53:37;;;;;;;16.90;9.40;;;-0.70;99.90;;;;;;6265190;23;20398;-95
2023/01/27 10:56:09;;;;;;;16.07;8.20;;;-0.10;99.90;;;;;;6261427;23;20439;-93
2023/01/27 10:58:53;;;;;;;14.63;9.30;;;0.00;99.90;;;;;;6260405;23;20934;-94
2023/01/27 11:01:27;;;;;;;16.40;8.67;;;-0.60;99.90;;;;;;6260746;23;20474;-93
2023/01/27 11:03:57;;;;;;;17.23;9.07;;;-0.50;99.90;;;;;;6266472;23;20413;-94
2023/01/27 11:06:29;;;;;;;21.23;9.20;;;-0.70;99.90;;;;;;6272792;23;20385;-94
2023/01/27 11:09:16;;;;;;;13.70;7.87;;;0.80;99.90;;;;;;6273340;22;20417;-93
2023/01/27 11:11:46;;;;;;;13.07;6.50;;;-0.10;99.90;;;;;;6262861;23;20437;-87
2023/01/27 11:14:18;;;;;;;14.20;9.50;;;-0.50;99.90;;;;;;6241496;23;20414;-82
2023/01/27 11:16:49;;;;;;;15.43;7.80;;;-0.20;99.90;;;;;;6242879;23;20998;-91
2023/01/27 11:19:31;;;;;;;14.90;7.60;;;-0.20;99.90;;;;;;6253130;23;20434;-93
2023/01/27 11:22:02;;;;;;;16.10;8.47;;;-0.20;99.90;;;;;;6246519;23;20912;-81
2023/01/27 11:24:35;;;;;;;12.87;8.00;;;-0.20;99.90;;;;;;6243818;23;20477;-76
2023/01/27 11:27:14;;;;;;;10.20;6.97;;;-0.10;99.90;;;;;;6241000;23;20766;-89
2023/01/27 11:29:48;;;;;;;10.87;6.70;;;-0.10;99.90;;;;;;6239468;23;20424;-75
2023/01/27 11:32:23;;;;;;;13.50;7.10;;;0.10;99.90;;;;;;6239608;23;20382;-75
2023/01/27 11:34:59;;;;;;;16.73;8.20;;;0.10;99.90;;;;;;6239253;23;20452;-77
2023/01/27 11:37:32;;;;;;;14.50;8.17;;;0.20;99.90;;;;;;6238172;23;20393;-77
2023/01/27 11:39:59;;;;;;;18.07;8.57;;;0.20;99.90;;;;;;6238592;23;20441;-77
2023/01/27 11:42:31;;;;;;;18.07;8.43;;;0.40;99.90;;;;;;6237306;23;20428;-76
2023/01/27 11:44:59;;;;;;;20.00;8.97;;;0.50;99.90;;;;;;6238465;23;20702;-77
2023/01/27 11:47:30;;;;;;;15.10;7.37;;;0.60;99.90;;;;;;6238167;23;20440;-77
2023/01/27 11:49:57;;;;;;;11.53;6.80;;;0.60;99.90;;;;;;6239646;23;20513;-77
2023/01/27 11:52:27;;;;;;;11.80;8.17;;;0.60;99.90;;;;;;6237593;23;20473;-77
2023/01/27 11:55:01;;;;;;;12.70;7.83;;;0.50;99.90;;;;;;6239720;23;20746;-78
2023/01/27 11:57:28;;;;;;;16.47;8.30;;;0.60;99.90;;;;;;6238981;23;20424;-76
2023/01/27 11:59:59;;;;;;;11.70;7.47;;;0.60;99.90;;;;;;6239426;23;20528;-76
2023/01/27 12:02:34;;;;;;;14.83;8.07;;;0.50;99.90;;;;;;6237736;23;20422;-77
2023/01/27 12:05:07;;;;;;;13.20;7.33;;;0.50;99.90;;;;;;6237962;23;20417;-77
2023/01/27 12:07:44;;;;;;;19.33;9.20;;;0.50;99.90;;;;;;6236970;23;20410;-77
2023/01/27 12:10:29;;;;;;;20.40;8.97;;;0.60;99.90;;;;;;6237850;23;20383;-77
2023/01/27 12:13:00;;;;;;;14.00;7.27;;;0.60;99.90;;;;;;6238152;23;20437;-78
2023/01/27 12:15:29;;;;;;;22.73;9.97;;;0.60;99.90;;;;;;6238668;23;20455;-75
2023/01/27 12:17:59;;;;;;;23.93;10.30;;;0.70;99.90;;;;;;6237538;23;20404;-76
2023/01/27 12:20:33;;;;;;;17.73;9.03;;;0.80;99.90;;;;;;6237358;23;20449;-76
2023/01/27 12:23:04;;;;;;;16.87;9.67;;;0.70;99.90;;;;;;6237849;23;20402;-77
2023/01/27 12:25:42;;;;;;;16.30;8.17;;;0.70;99.90;;;;;;6237843;23;20402;-76
2023/01/27 12:28:21;;;;;;;18.43;8.50;;;0.70;99.90;;;;;;6237673;23;20475;-75
2023/01/27 12:30:48;;;;;;;18.43;8.40;;;0.80;99.90;;;;;;6238700;23;20885;-78
2023/01/27 12:33:23;;;;;;;24.50;9.60;;;0.90;99.90;;;;;;6238034;23;20516;-78
2023/01/27 12:35:51;;;;;;;17.13;8.83;;;0.90;99.90;;;;;;6237221;23;20707;-79
2023/01/27 12:38:21;;;;;;;15.33;8.80;;;1.10;99.90;;;;;;6237763;23;20394;-78
2023/01/27 12:40:57;;;;;;;19.03;9.17;;;1.20;99.90;;;;;;6238561;23;20390;-76
2023/01/27 12:43:24;;;;;;;16.40;9.53;;;1.10;99.90;;;;;;6237279;23;20394;-76
2023/01/27 12:46:05;;;;;;;15.80;8.83;;;0.90;99.90;;;;;;6237905;23;20745;-76
2023/01/27 12:48:35;;;;;;;19.13;9.67;;;0.90;99.90;;;;;;6237607;23;20623;-77
2023/01/27 12:51:13;;;;;;;19.33;8.47;;;0.70;99.90;;;;;;6237162;23;20516;-76
2023/01/27 12:53:42;;;;;;;15.67;10.83;;;0.70;99.90;;;;;;6236737;23;20421;-75
2023/01/27 12:56:14;;;;;;;15.27;7.40;;;0.60;99.90;;;;;;6238306;23;20757;-78
2023/01/27 12:58:43;;;;;;;18.07;8.47;;;0.50;99.90;;;;;;6236552;23;20420;-79
2023/01/27 13:01:26;;;;;;;16.67;9.60;;;0.50;99.90;;;;;;6237030;23;20402;-78
2023/01/27 13:03:56;;;;;;;15.00;9.37;;;0.60;99.90;;;;;;6247394;23;20382;-76
2023/01/27 13:06:35;;;;;;;19.93;10.17;;;0.70;99.90;;;;;;6241065;23;20410;-92
2023/01/27 13:09:02;;;;;;;14.63;8.63;;;0.40;99.90;;;;;;6245771;23;20414;-92
2023/01/27 13:11:36;;;;;;;15.93;7.30;;;0.60;99.90;;;;;;6245279;23;20433;-92
2023/01/27 13:14:06;;;;;;;13.80;9.10;;;0.80;99.90;;;;;;6246202;23;20395;-92
2023/01/27 13:16:33;;;;;;;16.47;8.77;;;0.80;99.90;;;;;;6246952;23;20420;-93
2023/01/27 13:19:01;;;;;;;14.13;8.53;;;0.80;99.90;;;;;;6250181;23;20465;-92
2023/01/27 13:21:33;;;;;;;23.10;9.60;;;0.80;99.90;;;;;;6244626;23;20420;-89
2023/01/27 13:24:04;;;;;;;16.67;8.73;;;0.80;99.90;;;;;;6240555;23;20482;-92
2023/01/27 13:26:50;;;;;;;15.33;8.87;;;0.90;99.90;;;;;;6248705;23;21054;-91
2023/01/27 13:29:24;;;;;;;14.57;8.63;;;0.90;99.90;;;;;;6244673;23;20525;-90
2023/01/27 13:31:56;;;;;;;15.30;9.83;;;1.20;99.90;;;;;;6241062;23;20506;-90
2023/01/27 13:34:31;;;;;;;15.97;9.63;;;0.40;99.90;;;;;;6241627;23;20382;-91
2023/01/27 13:37:03;;;;;;;15.80;8.57;;;0.50;99.90;;;;;;6240652;23;20409;-88
2023/01/27 13:39:57;;;;;;;19.90;8.50;;;0.50;99.90;;;;;;6240356;23;20466;-89
2023/01/27 13:42:33;;;;;;;16.17;8.67;;;0.50;99.90;;;;;;6238965;23;20937;-85
2023/01/27 13:45:04;;;;;;;12.17;7.60;;;0.60;99.90;;;;;;6239712;23;20413;-87
2023/01/27 13:47:42;;;;;;;17.37;8.50;;;0.30;99.90;;;;;;6240328;23;20485;-91
2023/01/27 13:50:22;;;;;;;16.20;9.17;;;0.10;99.90;;;;;;6241037;23;20440;-80
2023/01/27 13:52:53;;;;;;;15.00;9.87;;;0.40;99.90;;;;;;6233951;23;20450;-81
2023/01/27 13:55:49;;;;;;;17.60;7.90;;;0.40;99.90;;;;;;6234226;23;20389;-83
2023/01/27 13:58:32;;;;;;;20.40;9.07;;;0.70;99.90;;;;;;6236769;23;20516;-78
2023/01/27 14:01:22;;;;;;;19.53;8.00;;;0.30;99.90;;;;;;6241526;23;20436;-89
2023/01/27 14:04:29;;;;;;;14.33;8.70;;;0.10;99.90;;;;;;6250117;23;20398;-85
2023/01/27 14:07:06;;;;;;;17.70;10.87;;;0.30;99.90;;;;;;6237802;23;20477;-86
2023/01/27 14:09:47;;;;;;;18.00;9.60;;;0.40;99.90;;;;;;6237275;23;20390;-88
2023/01/27 14:12:28;;;;;;;14.00;7.87;;;0.50;99.90;;;;;;6236377;23;20909;-88
2023/01/27 14:15:03;;;;;;;13.37;8.03;;;0.90;99.90;;;;;;6236148;23;20400;-87
2023/01/27 14:17:39;;;;;;;17.07;7.90;;;0.40;99.90;;;;;;6236103;23;20418;-90
2023/01/27 14:20:23;;;;;;;16.80;9.10;;;0.30;99.90;;;;;;6235753;23;20429;-89
2023/01/27 14:23:01;;;;;;;18.40;8.00;;;0.40;99.90;;;;;;6238528;23;20428;-88
2023/01/27 14:25:36;;;;;;;16.37;9.27;;;0.40;99.90;;;;;;6237149;23;20893;-90
2023/01/27 14:28:16;;;;;;;15.47;7.70;;;0.50;99.90;;;;;;6237727;23;20918;-86
2023/01/27 14:30:53;;;;;;;22.50;9.63;;;0.40;99.90;;;;;;6241306;23;20405;-92
2023/01/27 14:33:30;;;;;;;20.27;10.00;;;0.40;99.90;;;;;;6238796;23;20398;-82
2023/01/27 14:36:06;;;;;;;16.27;8.83;;;0.30;99.90;;;;;;6233947;23;20483;-85
2023/01/27 14:38:42;;;;;;;20.60;9.10;;;0.50;99.90;;;;;;6239028;23;20398;-90
2023/01/27 14:41:16;;;;;;;14.80;8.10;;;0.50;99.90;;;;;;6248432;23;20520;-90
2023/01/27 14:43:52;;;;;;;14.63;8.17;;;0.40;99.90;;;;;;6247423;23;20474;-92
2023/01/27 14:46:36;;;;;;;20.30;8.20;;;0.30;99.90;;;;;;6245204;23;20420;-93
2023/01/27 14:49:11;;;;;;;21.47;9.67;;;0.20;99.90;;;;;;6243935;23;20434;-92
2023/01/27 14:51:43;;;;;;;18.87;9.93;;;0.00;99.90;;;;;;6243763;23;20428;-91
2023/01/27 14:54:27;;;;;;;21.60;10.30;;;0.20;99.90;;;;;;6243283;23;20395;-88
2023/01/27 14:57:10;;;;;;;17.23;9.30;;;-0.20;99.90;;;;;;6241937;23;20508;-90
2023/01/27 14:59:46;;;;;;;19.13;10.43;;;0.10;99.90;;;;;;6243048;23;20516;-90
2023/01/27 15:02:32;;;;;;;21.30;8.83;;;-0.20;99.90;;;;;;6243663;23;20381;-91
2023/01/27 15:05:08;;;;;;;21.63;10.30;;;0.20;99.90;;;;;;6241763;23;20399;-92
2023/01/27 15:07:44;;;;;;;14.80;9.80;;;0.20;99.90;;;;;;6242122;23;20500;-89
2023/01/27 15:10:22;;;;;;;15.10;8.20;;;0.10;99.90;;;;;;6241719;23;20413;-88
2023/01/27 15:13:29;;;;;;;19.37;9.10;;;0.20;99.90;;;;;;6243152;23;20437;-91
2023/01/27 15:16:17;;;;;;;22.00;9.20;;;0.10;99.90;;;;;;6240512;23;20453;-87
2023/01/27 15:19:19;;;;;;;16.07;9.40;;;0.10;99.90;;;;;;6237155;23;20801;-79
2023/01/27 15:22:13;;;;;;;16.47;8.07;;;0.10;99.90;;;;;;6233719;23;20397;-91
2023/01/27 15:25:02;;;;;;;20.97;10.03;;;0.20;99.90;;;;;;6236459;23;20410;-81
2023/01/27 15:27:29;;;;;;;17.30;9.17;;;0.20;99.90;;;;;;6237002;23;20386;-83
2023/01/27 15:30:04;;;;;;;25.53;10.53;;;0.10;99.90;;;;;;6235120;23;20413;-83
2023/01/27 15:32:36;;;;;;;19.30;8.80;;;0.20;99.90;;;;;;6247012;23;20401;-90
2023/01/27 15:35:32;;;;;;;11.77;7.30;;;0.10;99.90;;;;;;6244518;23;20413;-85
2023/01/27 15:38:19;;;;;;;12.33;7.37;;;0.00;99.90;;;;;;6244887;23;20428;-90
2023/01/27 15:41:11;;;;;;;13.30;6.93;;;0.00;99.90;;;;;;6245598;23;20457;-89
2023/01/27 15:43:42;;;;;;;17.47;9.00;;;0.00;99.90;;;;;;6239471;23;20969;-88
2023/01/27 15:46:31;;;;;;;14.40;8.17;;;0.10;99.90;;;;;;6241644;23;20504;-87
2023/01/27 15:49:00;;;;;;;16.47;8.43;;;0.10;99.90;;;;;;6241234;23;20434;-85
2023/01/27 15:51:29;;;;;;;19.40;9.03;;;0.00;99.90;;;;;;6239722;23;20856;-86
2023/01/27 15:54:00;;;;;;;21.27;9.00;;;0.10;99.90;;;;;;6237409;23;20508;-86
2023/01/27 15:56:45;;;;;;;13.10;7.97;;;0.00;99.90;;;;;;6239344;23;20408;-85
2023/01/27 15:59:16;;;;;;;18.40;9.50;;;0.00;99.90;;;;;;6238163;23;20420;-86
2023/01/27 16:01:43;;;;;;;16.17;8.50;;;0.00;99.90;;;;;;6238499;23;20437;-84
2023/01/27 16:04:15;;;;;;;16.60;8.17;;;0.00;99.90;;;;;;6239929;23;20444;-84
2023/01/27 16:06:49;;;;;;;12.87;7.50;;;0.00;99.90;;;;;;6243552;23;20375;-75